Genesis — WAI5517 — position and weather

sailwx.info

Track history (hours):
 
Tides and Currents Weather Stations Pressure Air Temp Water Temp Dewpoint Dewpoint Depression Visibility Wind Speed Wind Dir Waves Ship Positions

Genesis

Owner: GOLDSTEIN, ROBERT A, TARZANA, CA. More information available from US FCC via Universal Licensing System and Coast Guard Vessel Documentation Center.

Last reported at 2017-Nov-05 19:20 UTC. Time now 2017-Dec-12 23:52 UTC.
Position N 33°21' W 118°18'.
Warning: this ship's position is 37 days out of date.

Length 24 m; draft 2 m.

MMSI: 338045235.

Date/timePositionNaut miles runAvg speedWind from/ knotsBaromVisibWave heightAir tempDewpointWater temp
2017-Nov-05 19:20N 33°21' W 118°18'3 3.5
2017-Nov-05 18:30N 33°19' W 118°16'28 1.2
2017-Nov-04 18:59N 33°11' W 118°48'11 5.7
2017-Nov-04 17:00N 33°18' W 118°58'4 7.9
2017-Nov-04 16:30N 33°21' W 119°01'1 1.1
2017-Nov-04 15:43N 33°21' W 119°01'1 3.0
2017-Nov-04 15:21N 33°21' W 119°03'1 2.0
2017-Nov-04 15:00N 33°21' W 119°02'1 1.8
2017-Nov-04 14:20N 33°22' W 119°03'0 0.1
2017-Nov-04 13:59N 33°22' W 119°03'0 0.0
2017-Nov-04 07:56N 33°22' W 119°03'0 0.0
2017-Nov-04 07:23N 33°22' W 119°03'0 0.1
2017-Nov-04 05:59N 33°21' W 119°03'0 0.1
2017-Nov-04 05:29N 33°21' W 119°03'0 0.1
2017-Nov-04 04:53N 33°22' W 119°03'0 0.0
2017-Nov-04 04:23N 33°22' W 119°03'0 0.0
2017-Nov-04 01:53N 33°22' W 119°03'0 0.0
2017-Nov-04 01:20N 33°22' W 119°03'0 0.0
2017-Nov-04 00:47N 33°22' W 119°03'0 0.0
2017-Nov-04 00:29N 33°22' W 119°03'1 2.8
2017-Nov-04 00:00N 33°20' W 119°02'0 0.4
2017-Nov-03 23:30N 33°21' W 119°02'3 5.1
2017-Nov-03 23:00N 33°23' W 119°03'2 4.5
2017-Nov-03 22:30N 33°24' W 119°01'2 4.1
2017-Nov-03 22:00N 33°25' W 118°59'4 7.6
2017-Nov-03 21:29N 33°28' W 118°55'0 0.5
2017-Nov-03 20:59N 33°28' W 118°55'4 6.9
2017-Nov-03 20:21N 33°30' W 118°51'21 6.0
2017-Nov-03 16:53N 33°44' W 118°33'  
Track history (hours):
 
Tides and Currents Weather Stations Pressure Air Temp Water Temp Dewpoint Dewpoint Depression Visibility Wind Speed Wind Dir Waves Ship Positions

Genesis

Owner: GOLDSTEIN, ROBERT A, TARZANA, CA. More information available from US FCC via Universal Licensing System and Coast Guard Vessel Documentation Center.

Last reported at 2017-Nov-05 19:20 UTC. Time now 2017-Dec-12 23:52 UTC.
Position N 33°21' W 118°18'.
Warning: this ship's position is 37 days out of date.

Length 24 m; draft 2 m.

MMSI: 338045235.

Date/timePositionNaut miles runAvg speedWind from/ knotsBaromVisibWave heightAir tempDewpointWater temp
2017-Nov-05 19:20N 33°21' W 118°18'3 3.5
2017-Nov-05 18:30N 33°19' W 118°16'28 1.2
2017-Nov-04 18:59N 33°11' W 118°48'11 5.7
2017-Nov-04 17:00N 33°18' W 118°58'4 7.9
2017-Nov-04 16:30N 33°21' W 119°01'1 1.1
2017-Nov-04 15:43N 33°21' W 119°01'1 3.0
2017-Nov-04 15:21N 33°21' W 119°03'1 2.0
2017-Nov-04 15:00N 33°21' W 119°02'1 1.8
2017-Nov-04 14:20N 33°22' W 119°03'0 0.1
2017-Nov-04 13:59N 33°22' W 119°03'0 0.0
2017-Nov-04 07:56N 33°22' W 119°03'0 0.0
2017-Nov-04 07:23N 33°22' W 119°03'0 0.1
2017-Nov-04 05:59N 33°21' W 119°03'0 0.1
2017-Nov-04 05:29N 33°21' W 119°03'0 0.1
2017-Nov-04 04:53N 33°22' W 119°03'0 0.0
2017-Nov-04 04:23N 33°22' W 119°03'0 0.0
2017-Nov-04 01:53N 33°22' W 119°03'0 0.0
2017-Nov-04 01:20N 33°22' W 119°03'0 0.0
2017-Nov-04 00:47N 33°22' W 119°03'0 0.0
2017-Nov-04 00:29N 33°22' W 119°03'1 2.8
2017-Nov-04 00:00N 33°20' W 119°02'0 0.4
2017-Nov-03 23:30N 33°21' W 119°02'3 5.1
2017-Nov-03 23:00N 33°23' W 119°03'2 4.5
2017-Nov-03 22:30N 33°24' W 119°01'2 4.1
2017-Nov-03 22:00N 33°25' W 118°59'4 7.6
2017-Nov-03 21:29N 33°28' W 118°55'0 0.5
2017-Nov-03 20:59N 33°28' W 118°55'4 6.9
2017-Nov-03 20:21N 33°30' W 118°51'21 6.0
2017-Nov-03 16:53N 33°44' W 118°33'  

Dump ship's entire track history